createdAt,value
2022-10-09T00:00:49.890Z,96.47
2022-10-09T00:03:18.791Z,96.33
2022-10-09T00:05:48.742Z,96.41
2022-10-09T00:08:15.595Z,96.38
2022-10-09T00:10:42.794Z,96.38
2022-10-09T00:13:09.747Z,96.31
2022-10-09T00:15:40.914Z,95.75
2022-10-09T00:18:09.090Z,95.93
2022-10-09T00:20:40.503Z,95.95
2022-10-09T00:23:10.855Z,96.48
2022-10-09T00:25:37.964Z,95.79
2022-10-09T00:28:06.187Z,96.51
2022-10-09T00:30:32.729Z,95.83
2022-10-09T00:32:59.606Z,96.32
2022-10-09T00:35:29.371Z,96.53
2022-10-09T00:37:56.016Z,96.29
2022-10-09T00:40:24.008Z,96.62
2022-10-09T00:42:57.269Z,96.66
2022-10-09T00:45:23.998Z,96.55
2022-10-09T00:47:58.307Z,96.53
2022-10-09T00:50:26.835Z,97.01
2022-10-09T00:52:59.924Z,97.14
2022-10-09T00:55:28.779Z,96.99
2022-10-09T00:57:57.353Z,96.60
2022-10-09T01:00:27.171Z,96.63
2022-10-09T01:02:54.670Z,96.41
2022-10-09T01:06:02.200Z,96.93
2022-10-09T01:08:39.490Z,96.76
2022-10-09T01:11:26.420Z,97.17
2022-10-09T01:14:25.042Z,96.77
2022-10-09T01:17:34.198Z,97.33
2022-10-09T01:20:37.715Z,97.17
2022-10-09T01:23:17.951Z,97.37
2022-10-09T01:26:09.409Z,97.01
2022-10-09T01:28:41.254Z,96.57
2022-10-09T01:31:09.545Z,96.87
2022-10-09T01:33:37.081Z,96.75
2022-10-09T01:36:05.809Z,96.58
2022-10-09T01:38:34.391Z,97.08
2022-10-09T01:41:07.653Z,96.97
2022-10-09T01:43:34.281Z,96.84
2022-10-09T01:46:21.879Z,96.32
2022-10-09T01:48:57.107Z,96.39
2022-10-09T01:51:33.342Z,96.57
2022-10-09T01:54:04.856Z,96.72
2022-10-09T01:56:37.890Z,96.80
2022-10-09T01:59:15.897Z,97.14
2022-10-09T02:01:43.247Z,97.04
2022-10-09T02:04:13.629Z,97.47
2022-10-09T02:06:44.867Z,97.67
2022-10-09T02:09:17.135Z,97.97
2022-10-09T02:11:49.363Z,97.62
2022-10-09T02:14:16.155Z,98.02
2022-10-09T02:16:46.859Z,97.77
2022-10-09T02:19:37.076Z,98.11
2022-10-09T02:22:27.487Z,97.56
2022-10-09T02:24:54.961Z,97.83
2022-10-09T02:27:24.274Z,97.69
2022-10-09T02:29:51.901Z,97.75
2022-10-09T02:32:19.131Z,97.57
2022-10-09T02:34:45.983Z,97.57
2022-10-09T02:37:12.734Z,96.96
2022-10-09T02:39:39.782Z,96.85
2022-10-09T02:42:07.315Z,97.21
2022-10-09T02:44:33.992Z,97.17
2022-10-09T02:47:01.388Z,97.33
2022-10-09T02:49:28.501Z,97.41
2022-10-09T02:51:56.064Z,97.72
2022-10-09T02:54:23.237Z,97.75
2022-10-09T02:56:52.680Z,97.83
2022-10-09T02:59:19.958Z,98.08
2022-10-09T03:01:47.090Z,98.44
2022-10-09T03:04:13.734Z,98.73
2022-10-09T03:06:40.718Z,98.53
2022-10-09T03:09:07.641Z,99.39
2022-10-09T03:11:34.176Z,98.91
2022-10-09T03:14:00.798Z,98.61
2022-10-09T03:16:27.697Z,99.24
2022-10-09T03:18:55.536Z,99.10
2022-10-09T03:21:27.166Z,98.60
2022-10-09T03:23:54.754Z,99.66
2022-10-09T03:26:24.183Z,99.45
2022-10-09T03:28:52.435Z,99.12
2022-10-09T03:31:39.818Z,99.48
2022-10-09T03:34:06.856Z,99.29
2022-10-09T03:36:33.870Z,99.47
2022-10-09T03:39:00.781Z,99.73
2022-10-09T03:41:27.813Z,99.81
2022-10-09T03:43:54.830Z,99.56
2022-10-09T03:46:21.480Z,100.00
2022-10-09T03:48:48.519Z,100.00
2022-10-09T03:51:14.999Z,100.00
2022-10-09T03:53:41.666Z,100.00
2022-10-09T03:56:08.195Z,100.00
2022-10-09T03:58:34.910Z,100.00
2022-10-09T04:01:02.051Z,100.00
2022-10-09T04:03:32.190Z,100.00
2022-10-09T04:05:59.103Z,100.00
2022-10-09T04:08:25.839Z,99.83
2022-10-09T04:11:03.265Z,99.57
2022-10-09T04:13:34.946Z,99.43
2022-10-09T04:16:01.619Z,99.39
2022-10-09T04:18:28.302Z,98.71
2022-10-09T04:20:56.851Z,99.18
2022-10-09T04:23:27.042Z,99.19
2022-10-09T04:25:55.090Z,99.93
2022-10-09T04:28:23.667Z,99.91
2022-10-09T04:30:50.711Z,100.00
2022-10-09T04:33:17.332Z,100.00
2022-10-09T04:35:52.220Z,100.00
2022-10-09T04:38:19.924Z,100.00
2022-10-09T04:41:15.749Z,100.00
2022-10-09T04:43:42.603Z,100.00
2022-10-09T04:46:15.589Z,100.00
2022-10-09T04:48:46.273Z,100.00
2022-10-09T04:51:14.940Z,100.00
2022-10-09T04:53:44.200Z,100.00
2022-10-09T04:56:13.765Z,100.00
2022-10-09T04:58:43.176Z,100.00
2022-10-09T05:01:21.478Z,100.00
2022-10-09T05:03:48.567Z,100.00
2022-10-09T05:06:15.814Z,100.00
2022-10-09T05:08:42.766Z,100.00
2022-10-09T05:11:17.145Z,100.00
2022-10-09T05:13:47.799Z,100.00
2022-10-09T05:16:18.057Z,100.00
2022-10-09T05:18:47.793Z,100.00
2022-10-09T05:21:15.332Z,100.00
2022-10-09T05:23:42.381Z,100.00
2022-10-09T05:26:15.923Z,100.00
2022-10-09T05:28:42.920Z,100.00
2022-10-09T05:31:15.422Z,100.00
2022-10-09T05:33:42.883Z,100.00
2022-10-09T05:36:15.007Z,100.00
2022-10-09T05:38:42.367Z,100.00
2022-10-09T05:41:11.895Z,100.00
2022-10-09T05:43:41.114Z,100.00
2022-10-09T05:46:07.919Z,100.00
2022-10-09T05:48:35.025Z,100.00
2022-10-09T05:51:09.173Z,100.00
2022-10-09T05:53:43.327Z,100.00
2022-10-09T05:56:20.995Z,100.00
2022-10-09T05:58:53.563Z,100.00
2022-10-09T06:01:21.593Z,100.00
2022-10-09T06:03:53.422Z,100.00
2022-10-09T06:06:22.229Z,100.00
2022-10-09T06:08:49.310Z,100.00
2022-10-09T06:11:28.874Z,100.00
2022-10-09T06:13:56.799Z,100.00
2022-10-09T06:16:25.914Z,100.00
2022-10-09T06:18:54.408Z,100.00
2022-10-09T06:21:22.197Z,100.00
2022-10-09T06:23:50.714Z,100.00
2022-10-09T06:26:18.189Z,100.00
2022-10-09T06:28:45.366Z,100.00
2022-10-09T06:31:14.509Z,100.00
2022-10-09T06:33:43.647Z,100.00
2022-10-09T06:36:21.161Z,100.00
2022-10-09T06:38:48.598Z,100.00
2022-10-09T06:41:23.755Z,100.00
2022-10-09T06:43:55.055Z,100.00
2022-10-09T06:46:24.625Z,100.00
2022-10-09T06:48:51.797Z,100.00
2022-10-09T06:51:20.858Z,100.00
2022-10-09T06:53:50.249Z,100.00
2022-10-09T06:56:18.603Z,100.00
2022-10-09T06:58:45.534Z,100.00
2022-10-09T07:01:18.346Z,100.00
2022-10-09T07:03:47.289Z,100.00
2022-10-09T07:06:34.957Z,100.00
2022-10-09T07:09:05.412Z,100.00
2022-10-09T07:11:37.451Z,100.00
2022-10-09T07:14:09.802Z,100.00
2022-10-09T07:16:42.333Z,100.00
2022-10-09T07:19:13.920Z,100.00
2022-10-09T07:21:43.010Z,100.00
2022-10-09T07:24:12.469Z,100.00
2022-10-09T07:26:40.632Z,100.00
2022-10-09T07:29:07.950Z,100.00
2022-10-09T07:31:35.024Z,100.00
2022-10-09T07:34:01.895Z,100.00
2022-10-09T07:36:28.591Z,100.00
2022-10-09T07:38:56.770Z,100.00
2022-10-09T07:41:25.895Z,100.00
2022-10-09T07:43:52.439Z,100.00
2022-10-09T07:46:20.938Z,100.00
2022-10-09T07:48:48.720Z,97.79
2022-10-09T07:51:32.107Z,94.19
2022-10-09T07:54:02.354Z,88.15
2022-10-09T07:56:38.054Z,83.67
2022-10-09T07:59:08.242Z,80.44
2022-10-09T08:01:35.833Z,76.74
2022-10-09T08:04:03.210Z,75.19
2022-10-09T08:06:31.964Z,75.47
2022-10-09T08:09:00.118Z,73.77
2022-10-09T08:11:28.967Z,72.35
2022-10-09T08:13:58.893Z,71.64
2022-10-09T08:16:26.807Z,70.45
2022-10-09T08:19:01.730Z,73.15
2022-10-09T08:21:29.214Z,75.55
2022-10-09T08:23:58.471Z,77.80
2022-10-09T08:26:26.970Z,78.78
2022-10-09T08:28:56.959Z,80.88
2022-10-09T08:31:24.327Z,82.43
2022-10-09T08:34:00.803Z,83.62
2022-10-09T08:36:30.213Z,83.94
2022-10-09T08:38:57.228Z,84.30
2022-10-09T08:41:33.096Z,85.21
2022-10-09T08:44:04.698Z,85.72
2022-10-09T08:46:47.331Z,82.04
2022-10-09T08:49:57.492Z,77.99
2022-10-09T08:52:52.545Z,75.47
2022-10-09T08:55:23.795Z,73.97
2022-10-09T08:57:53.768Z,72.92
2022-10-09T09:00:27.667Z,70.55
2022-10-09T09:03:15.108Z,69.88
2022-10-09T09:05:53.966Z,72.48
2022-10-09T09:08:32.718Z,69.20
2022-10-09T09:11:21.663Z,68.64
2022-10-09T09:14:00.943Z,68.15
2022-10-09T09:16:55.699Z,67.46
2022-10-09T09:19:47.087Z,66.00
2022-10-09T09:22:17.185Z,66.34
2022-10-09T09:24:49.746Z,64.00
2022-10-09T09:27:21.896Z,63.72
2022-10-09T09:30:23.680Z,64.74
2022-10-09T09:32:54.188Z,63.58
2022-10-09T09:35:29.881Z,64.88
2022-10-09T09:37:56.666Z,65.47
2022-10-09T09:40:36.877Z,66.50
2022-10-09T09:43:33.522Z,68.16
2022-10-09T09:46:01.367Z,68.96
2022-10-09T09:48:31.059Z,70.13
2022-10-09T09:51:16.043Z,70.22
2022-10-09T09:53:48.504Z,70.44
2022-10-09T09:56:16.320Z,71.23
2022-10-09T09:58:49.942Z,71.30
2022-10-09T10:01:31.276Z,70.33
2022-10-09T10:04:01.515Z,70.84
2022-10-09T10:06:34.453Z,70.75
2022-10-09T10:09:12.944Z,69.73
2022-10-09T10:12:04.722Z,70.07
2022-10-09T10:14:32.610Z,69.84
2022-10-09T10:17:00.167Z,70.44
2022-10-09T10:19:31.462Z,70.00
2022-10-09T10:22:04.888Z,69.25
2022-10-09T10:24:42.779Z,69.08
2022-10-09T10:27:41.050Z,68.87
2022-10-09T10:30:14.750Z,68.75
2022-10-09T10:33:04.181Z,69.17
2022-10-09T10:35:35.901Z,69.30
2022-10-09T10:38:07.746Z,67.64
2022-10-09T10:40:48.587Z,66.78
2022-10-09T10:43:39.536Z,66.44
2022-10-09T10:46:16.317Z,67.27
2022-10-09T10:48:49.180Z,66.17
2022-10-09T10:51:37.640Z,64.99
2022-10-09T10:54:36.325Z,65.21
2022-10-09T10:57:15.173Z,65.33
2022-10-09T11:00:19.487Z,63.06
2022-10-09T11:03:24.314Z,61.43
2022-10-09T11:06:03.884Z,63.28
2022-10-09T11:08:45.284Z,61.92
2022-10-09T11:12:04.570Z,61.40
2022-10-09T11:14:57.334Z,60.36
2022-10-09T11:17:34.568Z,58.87
2022-10-09T11:20:25.955Z,59.16
2022-10-09T11:23:09.703Z,58.87
2022-10-09T11:25:50.573Z,57.34
2022-10-09T11:28:24.802Z,57.44
2022-10-09T11:31:10.191Z,57.37
2022-10-09T11:33:46.035Z,57.83
2022-10-09T11:36:26.704Z,56.37
2022-10-09T11:38:59.249Z,56.21
2022-10-09T11:41:28.083Z,55.81
2022-10-09T11:44:06.289Z,54.80
2022-10-09T11:46:38.718Z,54.25
2022-10-09T11:49:42.888Z,54.25
2022-10-09T11:52:21.015Z,53.55
2022-10-09T11:54:47.766Z,52.48
2022-10-09T11:57:15.440Z,52.63
2022-10-09T11:59:42.807Z,51.69
2022-10-09T12:02:31.779Z,51.75
2022-10-09T12:04:58.700Z,51.09
2022-10-09T12:07:40.288Z,50.31
2022-10-09T12:10:21.528Z,49.79
2022-10-09T12:12:59.841Z,49.45
2022-10-09T12:15:47.480Z,49.57
2022-10-09T12:18:23.219Z,47.41
2022-10-09T12:20:50.806Z,47.73
2022-10-09T12:23:27.344Z,47.52
2022-10-09T12:25:56.726Z,47.31
2022-10-09T12:28:39.345Z,48.30
2022-10-09T12:31:17.460Z,46.99
2022-10-09T12:33:49.582Z,47.31
2022-10-09T12:36:23.947Z,47.43
2022-10-09T12:38:51.005Z,48.21
2022-10-09T12:41:24.941Z,48.37
2022-10-09T12:43:54.932Z,48.57
2022-10-09T12:46:33.625Z,48.14
2022-10-09T12:49:04.494Z,49.08
2022-10-09T12:51:33.591Z,48.34
2022-10-09T12:54:07.783Z,48.92
2022-10-09T12:56:38.502Z,49.24
2022-10-09T12:59:10.147Z,49.19
2022-10-09T13:01:40.487Z,50.08
2022-10-09T13:04:09.354Z,50.47
2022-10-09T13:06:51.049Z,49.81
2022-10-09T13:09:23.007Z,49.98
2022-10-09T13:12:18.245Z,50.05
2022-10-09T13:15:08.627Z,49.55
2022-10-09T13:17:36.939Z,50.01
2022-10-09T13:20:12.499Z,50.59
2022-10-09T13:22:39.499Z,50.14
2022-10-09T13:25:09.849Z,49.48
2022-10-09T13:27:39.308Z,49.19
2022-10-09T13:30:07.658Z,49.12
2022-10-09T13:32:34.210Z,49.94
2022-10-09T13:35:01.102Z,51.07
2022-10-09T13:37:28.018Z,51.11
2022-10-09T13:39:56.627Z,51.67
2022-10-09T13:42:30.517Z,51.53
2022-10-09T13:44:59.856Z,50.39
2022-10-09T13:47:27.214Z,50.23
2022-10-09T13:49:54.643Z,51.09
2022-10-09T13:52:21.209Z,50.72
2022-10-09T13:54:47.973Z,51.68
2022-10-09T13:57:14.680Z,52.01
2022-10-09T13:59:41.239Z,51.62
2022-10-09T14:02:07.850Z,52.20
2022-10-09T14:04:34.519Z,52.71
2022-10-09T14:07:01.397Z,53.46
2022-10-09T14:09:27.938Z,53.37
2022-10-09T14:11:55.217Z,53.47
2022-10-09T14:14:22.612Z,54.11
2022-10-09T14:16:51.656Z,53.12
2022-10-09T14:19:18.301Z,52.66
2022-10-09T14:21:46.983Z,53.36
2022-10-09T14:24:20.202Z,54.26
2022-10-09T14:26:51.616Z,53.55
2022-10-09T14:29:18.713Z,54.01
2022-10-09T14:31:45.515Z,54.46
2022-10-09T14:34:14.488Z,54.74
2022-10-09T14:36:42.372Z,55.27
2022-10-09T14:39:12.282Z,55.37
2022-10-09T14:41:38.924Z,55.74
2022-10-09T14:44:06.276Z,55.87
2022-10-09T14:46:34.328Z,56.51
2022-10-09T14:49:07.357Z,56.19
2022-10-09T14:51:39.517Z,57.01
2022-10-09T14:54:07.462Z,57.27
2022-10-09T14:56:34.785Z,56.29
2022-10-09T14:59:02.365Z,56.27
2022-10-09T15:01:29.775Z,56.05
2022-10-09T15:03:56.994Z,55.53
2022-10-09T15:06:27.711Z,55.53
2022-10-09T15:09:00.333Z,56.28
2022-10-09T15:11:31.886Z,56.25
2022-10-09T15:13:59.064Z,56.20
2022-10-09T15:16:26.666Z,56.20
2022-10-09T15:18:55.738Z,55.34
2022-10-09T15:21:24.970Z,55.99
2022-10-09T15:23:55.262Z,56.67
2022-10-09T15:26:22.873Z,56.19
2022-10-09T15:28:49.997Z,56.04
2022-10-09T15:31:24.524Z,56.25
2022-10-09T15:33:55.521Z,56.68
2022-10-09T15:36:22.974Z,57.19
2022-10-09T15:38:50.018Z,57.42
2022-10-09T15:41:30.688Z,58.25
2022-10-09T15:44:00.954Z,58.59
2022-10-09T15:46:28.502Z,59.21
2022-10-09T15:48:55.987Z,59.27
2022-10-09T15:51:24.473Z,59.37
2022-10-09T15:53:53.524Z,59.66
2022-10-09T15:56:23.163Z,59.78
2022-10-09T15:58:52.686Z,59.93
2022-10-09T16:01:23.041Z,59.44
2022-10-09T16:03:50.356Z,59.03
2022-10-09T16:06:19.484Z,58.82
2022-10-09T16:08:47.102Z,59.15
2022-10-09T16:11:20.320Z,59.30
2022-10-09T16:13:50.453Z,59.65
2022-10-09T16:16:23.635Z,60.27
2022-10-09T16:18:53.302Z,60.46
2022-10-09T16:21:23.160Z,60.64
2022-10-09T16:23:53.282Z,60.98
2022-10-09T16:26:22.920Z,61.37
2022-10-09T16:28:51.738Z,61.71
2022-10-09T16:31:24.641Z,62.13
2022-10-09T16:33:51.329Z,62.39
2022-10-09T16:36:19.026Z,62.88
2022-10-09T16:38:45.607Z,63.03
2022-10-09T16:41:19.395Z,62.96
2022-10-09T16:43:48.196Z,63.23
2022-10-09T16:46:30.087Z,63.98
2022-10-09T16:48:58.346Z,64.06
2022-10-09T16:51:36.879Z,64.96
2022-10-09T16:54:05.605Z,65.36
2022-10-09T16:56:38.302Z,66.21
2022-10-09T16:59:07.961Z,67.02
2022-10-09T17:01:45.254Z,67.30
2022-10-09T17:04:13.164Z,67.38
2022-10-09T17:06:41.467Z,67.77
2022-10-09T17:09:14.171Z,67.82
2022-10-09T17:11:41.730Z,68.38
2022-10-09T17:14:11.311Z,69.17
2022-10-09T17:16:40.193Z,69.43
2022-10-09T17:19:07.654Z,70.33
2022-10-09T17:21:34.925Z,70.77
2022-10-09T17:24:06.451Z,70.96
2022-10-09T17:26:34.581Z,71.32
2022-10-09T17:29:02.270Z,71.95
2022-10-09T17:31:29.690Z,72.24
2022-10-09T17:33:59.097Z,72.54
2022-10-09T17:36:28.798Z,72.90
2022-10-09T17:38:55.928Z,73.39
2022-10-09T17:41:25.999Z,73.83
2022-10-09T17:43:54.208Z,74.41
2022-10-09T17:46:22.281Z,74.69
2022-10-09T17:48:56.684Z,74.87
2022-10-09T17:51:28.724Z,75.18
2022-10-09T17:59:34.752Z,75.63
2022-10-09T18:02:44.375Z,75.88
2022-10-09T18:05:51.050Z,75.98
2022-10-09T18:08:53.900Z,76.15
2022-10-09T18:15:32.494Z,76.78
2022-10-09T18:17:59.468Z,76.64
2022-10-09T18:21:03.432Z,77.25
2022-10-09T18:23:35.612Z,77.14
2022-10-09T18:26:17.760Z,77.39
2022-10-09T18:28:48.286Z,77.26
2022-10-09T18:31:31.660Z,78.16
2022-10-09T18:34:09.825Z,77.89
2022-10-09T18:37:28.992Z,78.41
2022-10-09T18:40:25.576Z,79.04
2022-10-09T18:42:52.793Z,78.90
2022-10-09T18:45:20.379Z,78.83
2022-10-09T18:47:47.011Z,79.39
2022-10-09T18:50:15.100Z,79.51
2022-10-09T18:52:42.638Z,79.61
2022-10-09T18:55:12.667Z,79.81
2022-10-09T18:57:41.546Z,80.01
2022-10-09T19:00:09.130Z,80.35
2022-10-09T19:02:36.318Z,80.42
2022-10-09T19:05:03.320Z,80.52
2022-10-09T19:07:29.945Z,80.72
2022-10-09T19:09:57.463Z,80.83
2022-10-09T19:12:24.809Z,80.87
2022-10-09T19:14:52.533Z,80.95
2022-10-09T19:17:25.537Z,81.19
2022-10-09T19:19:54.897Z,81.33
2022-10-09T19:22:23.883Z,81.58
2022-10-09T19:24:51.568Z,81.50
2022-10-09T19:27:18.417Z,81.31
2022-10-09T19:29:44.977Z,81.72
2022-10-09T19:32:12.787Z,81.89
2022-10-09T19:34:39.498Z,82.54
2022-10-09T19:37:06.543Z,82.63
2022-10-09T19:39:33.339Z,82.35
2022-10-09T19:42:00.222Z,82.88
2022-10-09T19:44:26.910Z,83.21
2022-10-09T19:46:53.771Z,82.80
2022-10-09T19:49:26.310Z,83.38
2022-10-09T19:51:52.978Z,83.33
2022-10-09T19:54:19.729Z,83.25
2022-10-09T19:56:49.199Z,83.28
2022-10-09T19:59:16.668Z,83.41
2022-10-09T20:01:43.187Z,83.31
2022-10-09T20:04:11.623Z,83.42
2022-10-09T20:06:40.913Z,83.53
2022-10-09T20:09:08.936Z,83.35
2022-10-09T20:11:37.066Z,83.24
2022-10-09T20:14:07.620Z,83.42
2022-10-09T20:16:34.265Z,83.40
2022-10-09T20:19:01.806Z,83.60
2022-10-09T20:21:30.759Z,83.51
2022-10-09T20:23:58.564Z,83.39
2022-10-09T20:26:25.518Z,83.30
2022-10-09T20:28:54.117Z,83.40
2022-10-09T20:31:24.014Z,83.42
2022-10-09T20:33:51.847Z,83.32
2022-10-09T20:36:23.400Z,83.64
2022-10-09T20:38:50.259Z,83.65
2022-10-09T20:41:16.965Z,83.80
2022-10-09T20:43:53.756Z,83.77
2022-10-09T20:46:23.664Z,83.26
2022-10-09T20:48:52.000Z,83.30
2022-10-09T20:51:19.922Z,83.11
2022-10-09T20:53:47.014Z,83.13
2022-10-09T20:56:14.684Z,82.70
2022-10-09T20:58:41.923Z,82.34
2022-10-09T21:01:11.249Z,82.06
2022-10-09T21:03:38.586Z,81.71
2022-10-09T21:06:07.024Z,81.40
2022-10-09T21:08:36.362Z,81.06
2022-10-09T21:11:11.232Z,81.14
2022-10-09T21:13:38.815Z,80.80
2022-10-09T21:16:07.522Z,80.36
2022-10-09T21:18:34.505Z,80.35
2022-10-09T21:21:12.467Z,80.38
2022-10-09T21:23:39.228Z,80.05
2022-10-09T21:26:10.630Z,79.87
2022-10-09T21:28:37.155Z,79.99
2022-10-09T21:31:11.277Z,80.19
2022-10-09T21:33:43.049Z,79.82
2022-10-09T21:36:25.402Z,80.20
2022-10-09T21:38:53.567Z,80.08
2022-10-09T21:41:21.846Z,79.93
2022-10-09T21:43:48.665Z,79.76
2022-10-09T21:46:15.308Z,79.55
2022-10-09T21:48:41.949Z,79.48
2022-10-09T21:51:09.250Z,79.41
2022-10-09T21:53:39.594Z,79.34
2022-10-09T21:56:07.177Z,79.22
2022-10-09T21:58:33.987Z,79.16
2022-10-09T22:01:01.815Z,79.23
2022-10-09T22:03:30.244Z,79.41
2022-10-09T22:05:57.045Z,79.14
2022-10-09T22:08:24.526Z,79.36
2022-10-09T22:10:51.375Z,79.34
2022-10-09T22:13:21.529Z,79.40
2022-10-09T22:15:51.456Z,79.58
2022-10-09T22:18:18.822Z,79.69
2022-10-09T22:20:48.303Z,79.74
2022-10-09T22:23:15.511Z,79.82
2022-10-09T22:25:42.012Z,80.00
2022-10-09T22:28:08.861Z,79.96
2022-10-09T22:30:35.557Z,80.28
2022-10-09T22:33:02.300Z,80.41
2022-10-09T22:35:29.059Z,80.61
2022-10-09T22:37:57.184Z,80.81
2022-10-09T22:40:23.689Z,80.63
2022-10-09T22:42:51.317Z,80.97
2022-10-09T22:45:18.951Z,80.90
2022-10-09T22:47:47.880Z,81.33
2022-10-09T22:50:14.827Z,81.09
2022-10-09T22:52:41.888Z,81.11
2022-10-09T22:55:08.915Z,81.23
2022-10-09T22:57:36.444Z,81.35
2022-10-09T23:00:04.663Z,81.47
2022-10-09T23:02:31.487Z,81.24
2022-10-09T23:04:58.011Z,81.05
2022-10-09T23:07:24.789Z,81.17
2022-10-09T23:09:51.391Z,81.56
2022-10-09T23:12:20.777Z,81.72
2022-10-09T23:14:47.636Z,82.07
2022-10-09T23:17:16.523Z,82.36
2022-10-09T23:19:43.435Z,82.30
2022-10-09T23:22:10.478Z,82.28
2022-10-09T23:24:37.203Z,82.39
2022-10-09T23:27:06.990Z,82.44
2022-10-09T23:29:33.487Z,82.29
2022-10-09T23:31:59.991Z,82.83
2022-10-09T23:34:27.090Z,82.89
2022-10-09T23:36:53.744Z,82.43
2022-10-09T23:39:20.700Z,83.15
2022-10-09T23:41:47.618Z,82.96
2022-10-09T23:44:15.320Z,83.15
2022-10-09T23:46:44.248Z,83.20
2022-10-09T23:49:10.874Z,83.25
2022-10-09T23:51:38.135Z,83.13
2022-10-09T23:54:07.216Z,83.17
2022-10-09T23:56:35.942Z,83.29
2022-10-09T23:59:06.147Z,83.57
